This is the latest recevied weather packets stored in our database for station/object OK1FET-14. If no packets are shown the sender has not sent any weather packets the latest 10 day(s).
| Time | Temp. | Humidity | Pressure | Rain* | Wind** | Luminosity | Snow |
|---|---|---|---|---|---|---|---|
| 1787574007 | 23.33° C | 39% | 1023.8 hPa | - | - | - | - |
| 1787573726 | 22.78° C | 41% | 1023.8 hPa | - | - | - | - |
| 1787573726 | 22.78° C | 41% | 1023.8 hPa | - | - | - | - |
| 1787573726 | 22.78° C | 41% | 1023.8 hPa | - | - | - | - |
| 1787573445 | 22.22° C | 42% | 1023.9 hPa | - | - | - | - |
| 1787573445 | 22.22° C | 42% | 1023.9 hPa | - | - | - | - |
| 1787573445 | 22.22° C | 42% | 1023.9 hPa | - | - | - | - |
| 1787573164 | 21.67° C | 43% | 1023.9 hPa | - | - | - | - |
| 1787573163 | 21.67° C | 43% | 1023.9 hPa | - | - | - | - |
| 1787572883 | 20° C | 44% | 1023.9 hPa | - | - | - | - |
| 1787572883 | 20° C | 44% | 1023.9 hPa | - | - | - | - |
| 1787572601 | 21.11° C | 44% | 1023.9 hPa | - | - | - | - |
| 1787572601 | 21.11° C | 44% | 1023.9 hPa | - | - | - | - |
| 1787572601 | 21.11° C | 44% | 1023.9 hPa | - | - | - | - |
| 1787572320 | 21.67° C | 42% | 1024 hPa | - | - | - | - |
| 1787572320 | 21.67° C | 42% | 1024 hPa | - | - | - | - |
| 1787572320 | 21.67° C | 42% | 1024 hPa | - | - | - | - |
| 1787572039 | 22.78° C | 41% | 1024 hPa | - | - | - | - |
| 1787572039 | 22.78° C | 41% | 1024 hPa | - | - | - | - |
| 1787572039 | 22.78° C | 41% | 1024 hPa | - | - | - | - |
| 1787571758 | 21.11° C | 44% | 1023.9 hPa | - | - | - | - |
| 1787571758 | 21.11° C | 44% | 1023.9 hPa | - | - | - | - |
| 1787571477 | 22.22° C | 42% | 1024 hPa | - | - | - | - |
| 1787571476 | 22.22° C | 42% | 1024 hPa | - | - | - | - |
| 1787571195 | 21.67° C | 43% | 1024 hPa | - | - | - | - |
* Rain since midnight (hover to see other rain measurements)
** Current wind speed in m/s (hover to see current wind gust speed)